TAF KTPH
KTPH 081720Z 0818/0918 25007KT P6SM SCT200 FM090100 34007KT P6SM BKN250 FM090800 01006KT P6SM VCSH OVC100 FM091200 34004KT 6SM -SHRA BR OVC025=
METAR KTPH
WC KTPH
WS KTPH
WV KTPH